Aeroporto :
LOGIN :

Iscrizione | Disclaimer

   EN    FR    IT 

 










Sommario :    VFR   VFR Marginale   IFR   IFR Intensivo   IFR Molto Intensivo
Visibilità : 
Base nubi : 
>= 8 km
>= 3000ft
5 / 8 km
1000 / 3000 ft
1500m / 5 km
500 / 1000 ft
800 / 1500m
200 / 500 ft
< 800m
< 200 ft
Simboli :   Temporali  Nebbia  Neve Forte  Precipitazioni Forti  Vento > 20 kt
SIGMETs :   Varie  Temporali  Ghiacco  Turbolenza  Onda orograficha  Ceneri Vulcaniche






- Altitudine del aeroporto : 1247 ft
- Codice IATA : PRG


LKPR - Praha Ruzyne

ULTIMO METAR :
  • 262300Z 09002KT 3000 BR SCT002 SCT005 BKN012 M01/M01 Q1018 TEMPO 2000 BR BKN002

METARs OBSOLETI :
  • 262230Z 06003KT 3500 BR FEW002 SCT008 M00/M01 Q1018 REFZRA TEMPO 2000 BR BKN002
  • 262214Z 08003KT 4800 -FZRA BR SCT007 M00/M01 Q1018 RMK REG QNH 1014
  • 262200Z 10003KT 4500 -FZRA BR BKN007 M00/M01 Q1018 NOSIG
  • 262130Z 10003KT 4500 -FZRA BR FEW004 BKN006 OVC008 M00/M01 Q1018 TEMPO BKN004
  • 262114Z 10004KT 4500 -FZDZRA BR BKN006 OVC008 M00/M01 Q1018 RMK REG QNH 1014
  • 262100Z 09003KT 4900 -FZDZRA BR OVC005 M00/M01 Q1018 TEMPO OVC004
  • 262030Z 10003KT 5000 -FZDZRA BR FEW004 OVC006 M01/M01 Q1018 TEMPO 4000 BR BKN004

TAF TAF LKPR
Valido dal 26 a 18 ore il 28 a 00 ore UTC


261700Z 2618/2800 17004KT 5000 BR BKN005
TEMPO 2618/2620 BKN010
PROB30
TEMPO 2620/2707 2000 -FZRA BR BKN003
BECMG 2708/2710 21008KT 8000 BKN013
BECMG 2712/2715 23012KT 9999 -RA SCT015 BKN023
BECMG 2718/2721 19006KT SCT027



MetMap, La meteo Aeronautica in un colpo d'occhio ! - Copyright ORBIFLY Dicembre 2007 - Disclaimer

ORBIFLY MET'MAP TEAM :

Programmazione e sviluppo : Alexandra Zaïnal
Concezione : Baudouin d'Aumeries
Aiuto per la programmazione : Marc-Olivier Méhu
Supporto tecnico e logistico : Manuel Goepfert
Aiuto per la traduzione : Arnaldo La Scala

Contatto : metmap@orbifly.com




FONTI E CREDITI :

   NOAA